createdAt,value
2022-11-13T00:00:57.002Z,90.63
2022-11-13T00:03:23.613Z,90.70
2022-11-13T00:06:00.588Z,90.52
2022-11-13T00:08:27.445Z,90.76
2022-11-13T00:11:05.033Z,90.50
2022-11-13T00:13:31.854Z,90.38
2022-11-13T00:16:00.325Z,90.68
2022-11-13T00:18:28.135Z,90.47
2022-11-13T00:20:55.022Z,90.34
2022-11-13T00:23:21.522Z,90.58
2022-11-13T00:25:48.060Z,90.63
2022-11-13T00:28:14.759Z,90.73
2022-11-13T00:30:41.430Z,90.95
2022-11-13T00:33:07.995Z,90.33
2022-11-13T00:35:34.656Z,90.42
2022-11-13T00:38:01.139Z,90.60
2022-11-13T00:40:27.681Z,90.51
2022-11-13T00:42:54.202Z,90.45
2022-11-13T00:45:20.732Z,90.76
2022-11-13T00:47:47.224Z,90.78
2022-11-13T00:50:13.822Z,90.81
2022-11-13T00:52:40.408Z,90.54
2022-11-13T00:55:07.432Z,90.98
2022-11-13T00:57:33.976Z,90.92
2022-11-13T01:00:00.467Z,90.62
2022-11-13T01:02:27.010Z,90.65
2022-11-13T01:04:53.535Z,90.75
2022-11-13T01:07:20.142Z,90.84
2022-11-13T01:09:50.689Z,90.60
2022-11-13T01:12:17.272Z,91.00
2022-11-13T01:14:43.843Z,90.96
2022-11-13T01:17:10.388Z,90.93
2022-11-13T01:19:36.987Z,90.90
2022-11-13T01:22:03.581Z,90.83
2022-11-13T01:24:31.774Z,91.03
2022-11-13T01:26:58.303Z,90.45
2022-11-13T01:29:24.809Z,90.23
2022-11-13T01:31:51.338Z,90.30
2022-11-13T01:34:18.191Z,90.61
2022-11-13T01:36:44.681Z,90.59
2022-11-13T01:39:12.548Z,90.72
2022-11-13T01:41:39.604Z,90.79
2022-11-13T01:44:11.370Z,90.95
2022-11-13T01:46:44.243Z,90.87
2022-11-13T01:49:10.689Z,90.62
2022-11-13T01:51:47.144Z,91.11
2022-11-13T01:54:16.108Z,90.87
2022-11-13T01:56:43.644Z,90.80
2022-11-13T01:59:17.707Z,91.15
2022-11-13T02:01:44.877Z,90.94
2022-11-13T02:04:11.746Z,91.04
2022-11-13T02:06:49.687Z,90.67
2022-11-13T02:09:20.619Z,90.92
2022-11-13T02:11:47.557Z,91.10
2022-11-13T02:14:15.960Z,91.26
2022-11-13T02:16:45.541Z,91.10
2022-11-13T02:19:25.566Z,90.81
2022-11-13T02:22:07.503Z,90.98
2022-11-13T02:24:45.004Z,90.92
2022-11-13T02:27:26.358Z,90.85
2022-11-13T02:29:53.565Z,90.53
2022-11-13T02:32:20.128Z,90.82
2022-11-13T02:34:46.711Z,90.88
2022-11-13T02:37:13.328Z,90.92
2022-11-13T02:39:40.065Z,90.82
2022-11-13T02:42:06.695Z,90.49
2022-11-13T02:44:33.332Z,90.79
2022-11-13T02:46:59.926Z,91.04
2022-11-13T02:49:26.433Z,91.01
2022-11-13T02:51:54.075Z,91.05
2022-11-13T02:54:20.605Z,90.89
2022-11-13T02:56:47.312Z,90.60
2022-11-13T02:59:13.894Z,91.09
2022-11-13T03:04:21.267Z,91.08
2022-11-13T03:06:47.977Z,90.95
2022-11-13T03:09:14.579Z,90.90
2022-11-13T03:11:43.341Z,91.21
2022-11-13T03:14:10.451Z,90.97
2022-11-13T03:16:37.332Z,91.00
2022-11-13T03:19:04.633Z,91.06
2022-11-13T03:21:31.389Z,90.85
2022-11-13T03:23:57.985Z,90.91
2022-11-13T03:26:24.549Z,90.77
2022-11-13T03:28:51.048Z,91.09
2022-11-13T03:31:17.537Z,91.23
2022-11-13T03:33:44.060Z,91.09
2022-11-13T03:36:10.656Z,90.80
2022-11-13T03:38:37.862Z,90.99
2022-11-13T03:41:04.625Z,90.92
2022-11-13T03:43:31.561Z,91.18
2022-11-13T03:45:58.076Z,90.88
2022-11-13T03:48:24.844Z,90.95
2022-11-13T03:50:54.131Z,90.98
2022-11-13T03:53:20.708Z,90.93
2022-11-13T03:55:47.732Z,90.84
2022-11-13T03:58:14.413Z,90.96
2022-11-13T04:00:42.666Z,91.23
2022-11-13T04:03:09.749Z,91.25
2022-11-13T04:05:36.391Z,91.17
2022-11-13T04:08:03.573Z,91.24
2022-11-13T04:10:30.613Z,91.34
2022-11-13T04:12:57.228Z,91.28
2022-11-13T04:15:23.962Z,91.28
2022-11-13T04:17:51.106Z,91.11
2022-11-13T04:20:17.872Z,90.90
2022-11-13T04:22:44.523Z,91.28
2022-11-13T04:25:11.138Z,91.09
2022-11-13T04:27:37.656Z,91.27
2022-11-13T04:30:05.344Z,91.29
2022-11-13T04:32:32.859Z,91.14
2022-11-13T04:34:59.375Z,91.12
2022-11-13T04:37:25.935Z,91.08
2022-11-13T04:39:52.563Z,91.27
2022-11-13T04:42:37.671Z,91.26
2022-11-13T04:45:04.787Z,91.38
2022-11-13T04:47:31.392Z,91.30
2022-11-13T04:49:57.890Z,91.03
2022-11-13T04:52:24.434Z,91.40
2022-11-13T04:54:51.030Z,91.38
2022-11-13T04:57:17.531Z,90.97
2022-11-13T04:59:44.140Z,91.06
2022-11-13T05:02:10.706Z,90.92
2022-11-13T05:04:37.256Z,91.25
2022-11-13T05:07:04.833Z,90.98
2022-11-13T05:09:31.408Z,91.02
2022-11-13T05:11:58.015Z,91.30
2022-11-13T05:14:24.710Z,91.30
2022-11-13T05:16:51.747Z,91.24
2022-11-13T05:19:18.254Z,91.10
2022-11-13T05:21:44.979Z,91.26
2022-11-13T05:24:11.938Z,91.16
2022-11-13T05:26:39.754Z,91.35
2022-11-13T05:29:07.044Z,91.39
2022-11-13T05:31:33.593Z,91.56
2022-11-13T05:34:05.313Z,91.57
2022-11-13T05:36:32.891Z,91.75
2022-11-13T05:38:59.610Z,91.51
2022-11-13T05:41:26.974Z,91.55
2022-11-13T05:43:59.020Z,91.46
2022-11-13T05:46:28.186Z,91.46
2022-11-13T05:48:58.055Z,91.19
2022-11-13T05:51:27.358Z,91.22
2022-11-13T05:53:54.417Z,91.15
2022-11-13T05:56:28.091Z,91.11
2022-11-13T05:58:55.416Z,90.95
2022-11-13T06:01:25.580Z,91.10
2022-11-13T06:03:56.014Z,91.08
2022-11-13T06:06:23.883Z,91.30
2022-11-13T06:08:51.534Z,91.16
2022-11-13T06:11:21.055Z,91.19
2022-11-13T06:13:48.536Z,90.91
2022-11-13T06:16:18.153Z,90.90
2022-11-13T06:18:45.933Z,90.81
2022-11-13T06:21:16.863Z,90.64
2022-11-13T06:23:44.281Z,90.78
2022-11-13T06:26:15.448Z,90.73
2022-11-13T06:28:42.760Z,90.55
2022-11-13T06:31:15.006Z,90.41
2022-11-13T06:33:42.702Z,90.42
2022-11-13T06:36:15.745Z,90.66
2022-11-13T06:38:43.131Z,90.53
2022-11-13T06:41:12.290Z,90.02
2022-11-13T06:43:39.178Z,90.30
2022-11-13T06:46:10.218Z,90.33
2022-11-13T06:48:36.899Z,89.95
2022-11-13T06:51:06.054Z,89.64
2022-11-13T06:53:33.369Z,89.77
2022-11-13T06:56:00.604Z,90.05
2022-11-13T06:58:27.850Z,89.92
2022-11-13T07:00:54.933Z,89.67
2022-11-13T07:03:26.979Z,89.67
2022-11-13T07:05:53.618Z,89.57
2022-11-13T07:08:20.287Z,89.32
2022-11-13T07:10:54.995Z,89.39
2022-11-13T07:13:22.356Z,89.59
2022-11-13T07:15:49.435Z,89.52
2022-11-13T07:18:19.096Z,89.69
2022-11-13T07:20:49.449Z,89.22
2022-11-13T07:23:15.981Z,89.29
2022-11-13T07:25:42.520Z,89.26
2022-11-13T07:28:09.213Z,89.01
2022-11-13T07:30:35.774Z,88.99
2022-11-13T07:33:04.242Z,88.93
2022-11-13T07:35:30.897Z,88.97
2022-11-13T07:37:58.626Z,89.12
2022-11-13T07:40:25.842Z,89.07
2022-11-13T07:43:02.553Z,89.17
2022-11-13T07:45:29.510Z,89.43
2022-11-13T07:48:00.320Z,89.19
2022-11-13T07:50:28.694Z,89.10
2022-11-13T07:52:59.886Z,88.87
2022-11-13T07:55:27.524Z,88.63
2022-11-13T07:57:58.595Z,89.03
2022-11-13T08:00:29.083Z,88.71
2022-11-13T08:02:56.961Z,88.78
2022-11-13T08:05:23.830Z,88.44
2022-11-13T08:07:52.062Z,88.06
2022-11-13T08:10:20.266Z,88.06
2022-11-13T08:12:47.281Z,87.93
2022-11-13T08:15:15.236Z,87.82
2022-11-13T08:17:41.963Z,87.76
2022-11-13T08:20:09.201Z,88.28
2022-11-13T08:22:35.747Z,88.12
2022-11-13T08:25:02.480Z,88.25
2022-11-13T08:27:29.107Z,87.47
2022-11-13T08:29:55.845Z,87.81
2022-11-13T08:32:22.687Z,87.48
2022-11-13T08:34:49.460Z,87.77
2022-11-13T08:37:16.168Z,87.40
2022-11-13T08:39:42.713Z,87.38
2022-11-13T08:42:09.283Z,87.27
2022-11-13T08:44:35.964Z,87.10
2022-11-13T08:47:02.545Z,87.46
2022-11-13T08:49:29.122Z,87.89
2022-11-13T08:51:55.849Z,87.42
2022-11-13T08:54:22.390Z,87.57
2022-11-13T08:56:53.046Z,87.82
2022-11-13T08:59:23.813Z,87.56
2022-11-13T09:01:50.786Z,88.06
2022-11-13T09:04:17.576Z,87.85
2022-11-13T09:06:44.319Z,88.05
2022-11-13T09:09:10.921Z,87.66
2022-11-13T09:11:37.765Z,87.48
2022-11-13T09:14:04.557Z,87.20
2022-11-13T09:16:31.054Z,87.19
2022-11-13T09:18:57.664Z,87.50
2022-11-13T09:21:24.825Z,87.37
2022-11-13T09:23:51.316Z,87.21
2022-11-13T09:26:18.226Z,87.57
2022-11-13T09:28:44.849Z,87.75
2022-11-13T09:31:11.474Z,87.41
2022-11-13T09:33:39.187Z,87.60
2022-11-13T09:36:15.895Z,87.13
2022-11-13T09:38:43.406Z,87.12
2022-11-13T09:41:13.182Z,86.78
2022-11-13T09:44:32.095Z,86.17
2022-11-13T09:47:08.407Z,85.75
2022-11-13T09:49:40.630Z,86.31
2022-11-13T09:52:15.932Z,86.47
2022-11-13T09:54:43.561Z,86.73
2022-11-13T09:57:33.819Z,86.58
2022-11-13T10:00:13.118Z,86.76
2022-11-13T10:02:55.349Z,86.50
2022-11-13T10:05:39.678Z,86.42
2022-11-13T10:08:21.538Z,86.63
2022-11-13T10:10:56.110Z,86.61
2022-11-13T10:13:33.287Z,86.73
2022-11-13T10:16:14.467Z,86.40
2022-11-13T10:18:42.165Z,86.69
2022-11-13T10:21:29.791Z,86.82
2022-11-13T10:23:57.329Z,86.44
2022-11-13T10:26:27.637Z,86.32
2022-11-13T10:29:06.579Z,86.07
2022-11-13T10:31:45.012Z,86.01
2022-11-13T10:34:13.544Z,86.16
2022-11-13T10:36:54.707Z,85.83
2022-11-13T10:39:21.398Z,85.79
2022-11-13T10:41:53.964Z,85.74
2022-11-13T10:44:30.800Z,86.06
2022-11-13T10:47:56.907Z,85.82
2022-11-13T10:50:22.464Z,85.46
2022-11-13T10:52:51.082Z,85.55
2022-11-13T10:55:36.655Z,86.13
2022-11-13T10:58:16.387Z,85.82
2022-11-13T11:00:47.466Z,85.56
2022-11-13T11:03:19.702Z,85.80
2022-11-13T11:06:04.398Z,86.01
2022-11-13T11:08:33.945Z,85.69
2022-11-13T11:11:26.810Z,86.32
2022-11-13T11:14:24.445Z,86.15
2022-11-13T11:16:53.472Z,86.31
2022-11-13T11:19:25.632Z,86.59
2022-11-13T11:22:01.288Z,86.13
2022-11-13T11:24:35.260Z,86.06
2022-11-13T11:27:23.120Z,86.06
2022-11-13T11:30:01.220Z,86.08
2022-11-13T11:32:34.725Z,85.82
2022-11-13T11:35:15.879Z,85.75
2022-11-13T11:38:01.245Z,85.75
2022-11-13T11:40:36.313Z,85.79
2022-11-13T11:43:21.188Z,85.26
2022-11-13T11:45:48.248Z,84.91
2022-11-13T11:48:26.523Z,84.56
2022-11-13T11:51:24.265Z,84.52
2022-11-13T11:54:13.032Z,84.18
2022-11-13T11:56:48.592Z,84.45
2022-11-13T11:59:33.378Z,84.74
2022-11-13T12:02:16.481Z,84.60
2022-11-13T12:04:52.030Z,84.53
2022-11-13T12:07:31.053Z,84.88
2022-11-13T12:10:26.494Z,84.52
2022-11-13T12:13:13.283Z,84.73
2022-11-13T12:15:49.863Z,84.63
2022-11-13T12:18:57.151Z,84.49
2022-11-13T12:21:27.921Z,84.21
2022-11-13T12:24:18.926Z,84.14
2022-11-13T12:27:06.189Z,83.67
2022-11-13T12:30:03.114Z,83.93
2022-11-13T12:32:51.678Z,83.79
2022-11-13T12:35:21.012Z,83.72
2022-11-13T12:38:06.350Z,84.24
2022-11-13T12:40:44.228Z,83.86
2022-11-13T12:43:50.643Z,84.00
2022-11-13T12:46:18.293Z,84.15
2022-11-13T12:48:47.049Z,84.44
2022-11-13T12:51:15.958Z,84.29
2022-11-13T12:53:55.443Z,84.62
2022-11-13T12:56:26.096Z,84.94
2022-11-13T12:59:23.689Z,85.04
2022-11-13T13:01:48.979Z,85.18
2022-11-13T13:04:39.446Z,84.93
2022-11-13T13:07:23.114Z,85.28
2022-11-13T13:10:11.286Z,85.34
2022-11-13T13:12:40.675Z,84.97
2022-11-13T13:15:27.938Z,84.89
2022-11-13T13:18:27.030Z,84.56
2022-11-13T13:21:06.581Z,84.44
2022-11-13T13:23:39.207Z,84.10
2022-11-13T13:26:28.366Z,83.64
2022-11-13T13:29:08.530Z,84.07
2022-11-13T13:31:44.163Z,83.91
2022-11-13T13:34:18.121Z,84.07
2022-11-13T13:37:00.756Z,84.45
2022-11-13T13:39:46.201Z,84.58
2022-11-13T13:42:12.668Z,84.15
2022-11-13T13:45:00.977Z,84.36
2022-11-13T13:47:35.608Z,83.68
2022-11-13T13:50:06.251Z,84.28
2022-11-13T13:52:35.109Z,84.12
2022-11-13T13:55:07.658Z,84.00
2022-11-13T13:57:40.979Z,84.33
2022-11-13T14:00:13.579Z,83.98
2022-11-13T14:02:51.234Z,84.51
2022-11-13T14:05:35.947Z,83.84
2022-11-13T14:08:07.634Z,84.03
2022-11-13T14:10:36.923Z,84.61
2022-11-13T14:13:04.285Z,84.55
2022-11-13T14:15:33.639Z,84.69
2022-11-13T14:18:08.229Z,84.27
2022-11-13T14:20:58.778Z,84.22
2022-11-13T14:23:39.340Z,84.25
2022-11-13T14:26:06.655Z,84.29
2022-11-13T14:28:44.550Z,84.29
2022-11-13T14:31:13.998Z,84.19
2022-11-13T14:33:50.002Z,86.13
2022-11-13T14:36:27.070Z,85.85
2022-11-13T14:38:54.220Z,85.50
2022-11-13T14:41:38.532Z,85.52
2022-11-13T14:44:05.830Z,85.99
2022-11-13T14:47:06.434Z,85.98
2022-11-13T14:49:36.182Z,86.46
2022-11-13T14:52:03.695Z,86.95
2022-11-13T14:55:14.300Z,87.05
2022-11-13T14:57:25.115Z,86.39
2022-11-13T14:59:52.023Z,86.23
2022-11-13T15:02:20.332Z,86.60
2022-11-13T15:04:47.892Z,86.87
2022-11-13T15:07:29.634Z,87.23
2022-11-13T15:09:57.464Z,87.00
2022-11-13T15:12:24.009Z,86.95
2022-11-13T15:14:51.611Z,86.74
2022-11-13T15:17:21.964Z,86.95
2022-11-13T15:19:53.771Z,87.19
2022-11-13T15:22:27.116Z,87.43
2022-11-13T15:24:55.079Z,87.52
2022-11-13T15:27:21.747Z,87.71
2022-11-13T15:29:48.355Z,88.08
2022-11-13T15:32:16.544Z,87.90
2022-11-13T15:34:43.266Z,87.78
2022-11-13T15:37:14.655Z,87.38
2022-11-13T15:39:41.293Z,87.42
2022-11-13T15:42:13.829Z,87.63
2022-11-13T15:44:40.920Z,87.57
2022-11-13T15:47:26.582Z,87.69
2022-11-13T15:50:12.504Z,88.18
2022-11-13T15:52:42.754Z,88.65
2022-11-13T15:55:30.763Z,88.62
2022-11-13T15:57:58.555Z,88.47
2022-11-13T16:00:28.261Z,88.43
2022-11-13T16:02:56.749Z,88.39
2022-11-13T16:05:25.678Z,88.72
2022-11-13T16:07:53.688Z,88.97
2022-11-13T16:10:22.158Z,88.82
2022-11-13T16:12:48.961Z,89.03
2022-11-13T16:15:17.202Z,88.94
2022-11-13T16:17:48.933Z,89.16
2022-11-13T16:20:17.074Z,89.28
2022-11-13T16:22:44.289Z,89.10
2022-11-13T16:25:13.475Z,89.17
2022-11-13T16:27:40.191Z,89.19
2022-11-13T16:30:13.294Z,89.44
2022-11-13T16:32:39.792Z,89.85
2022-11-13T16:35:06.598Z,89.54
2022-11-13T16:37:33.134Z,89.86
2022-11-13T16:39:59.609Z,89.89
2022-11-13T16:42:30.769Z,89.65
2022-11-13T16:44:57.545Z,89.63
2022-11-13T16:47:27.018Z,89.67
2022-11-13T16:49:53.701Z,89.20
2022-11-13T16:52:20.258Z,89.52
2022-11-13T16:54:46.891Z,89.40
2022-11-13T16:57:14.562Z,89.19
2022-11-13T16:59:41.420Z,88.90
2022-11-13T17:04:58.423Z,88.92
2022-11-13T17:10:29.067Z,88.16
2022-11-13T17:12:51.913Z,88.14
2022-11-13T17:15:18.927Z,88.49
2022-11-13T17:17:46.269Z,88.60
2022-11-13T17:20:13.696Z,88.57
2022-11-13T17:22:43.943Z,88.67
2022-11-13T17:25:10.439Z,89.04
2022-11-13T17:27:36.913Z,88.95
2022-11-13T17:32:29.971Z,88.78
2022-11-13T17:34:57.615Z,88.59
2022-11-13T17:40:56.003Z,88.27
2022-11-13T17:43:22.603Z,88.45
2022-11-13T17:45:50.986Z,88.03
2022-11-13T17:48:18.779Z,87.62
2022-11-13T17:50:45.280Z,87.32
2022-11-13T17:53:11.870Z,87.60
2022-11-13T17:55:38.365Z,87.38
2022-11-13T17:58:05.007Z,87.20
2022-11-13T18:00:31.633Z,87.56
2022-11-13T18:02:58.178Z,87.24
2022-11-13T18:05:24.729Z,87.57
2022-11-13T18:07:51.245Z,87.71
2022-11-13T18:10:18.119Z,87.53
2022-11-13T18:12:44.712Z,87.33
2022-11-13T18:15:11.257Z,87.63
2022-11-13T18:17:38.355Z,87.62
2022-11-13T18:20:05.318Z,86.88
2022-11-13T18:22:31.889Z,87.28
2022-11-13T18:24:58.581Z,87.28
2022-11-13T18:27:25.172Z,87.34
2022-11-13T18:29:51.890Z,87.13
2022-11-13T18:32:18.831Z,87.62
2022-11-13T18:34:45.409Z,87.70
2022-11-13T18:37:12.056Z,87.42
2022-11-13T18:39:38.719Z,87.36
2022-11-13T18:42:05.256Z,86.90
2022-11-13T18:44:36.690Z,87.59
2022-11-13T18:47:03.412Z,87.92
2022-11-13T18:49:29.935Z,87.48
2022-11-13T18:51:56.494Z,87.04
2022-11-13T18:54:24.048Z,87.15
2022-11-13T18:56:51.015Z,87.31
2022-11-13T18:59:17.679Z,87.19
2022-11-13T19:01:44.533Z,86.95
2022-11-13T19:04:27.458Z,87.36
2022-11-13T19:06:54.188Z,86.83
2022-11-13T19:09:20.922Z,87.25
2022-11-13T19:11:47.471Z,86.99
2022-11-13T19:14:17.790Z,87.08
2022-11-13T19:16:44.545Z,87.36
2022-11-13T19:19:20.900Z,87.00
2022-11-13T19:21:47.951Z,86.02
2022-11-13T19:24:15.006Z,86.35
2022-11-13T19:26:42.985Z,86.34
2022-11-13T19:29:09.926Z,86.07
2022-11-13T19:31:36.424Z,86.67
2022-11-13T19:34:06.395Z,86.26
2022-11-13T19:36:34.421Z,86.63
2022-11-13T19:39:01.199Z,86.94
2022-11-13T19:41:29.409Z,87.11
2022-11-13T19:43:59.394Z,87.21
2022-11-13T19:46:26.719Z,86.84
2022-11-13T19:48:53.384Z,87.05
2022-11-13T19:51:22.890Z,87.59
2022-11-13T19:53:54.799Z,87.88
2022-11-13T19:56:22.924Z,87.86
2022-11-13T19:58:50.938Z,87.96
2022-11-13T20:01:23.194Z,87.76
2022-11-13T20:03:57.702Z,87.97
2022-11-13T20:06:26.085Z,87.58
2022-11-13T20:08:52.924Z,87.56
2022-11-13T20:11:19.510Z,87.37
2022-11-13T20:13:46.448Z,87.34
2022-11-13T20:16:14.984Z,86.94
2022-11-13T20:18:42.875Z,87.38
2022-11-13T20:21:10.031Z,87.68
2022-11-13T20:23:38.117Z,87.53
2022-11-13T20:26:07.514Z,87.35
2022-11-13T20:28:34.856Z,87.35
2022-11-13T20:31:19.715Z,87.19
2022-11-13T20:33:47.487Z,87.05
2022-11-13T20:36:15.482Z,87.47
2022-11-13T20:38:46.561Z,87.19
2022-11-13T20:41:15.606Z,86.90
2022-11-13T20:43:42.275Z,86.82
2022-11-13T20:46:11.238Z,86.73
2022-11-13T20:48:38.363Z,86.47
2022-11-13T20:51:16.873Z,86.51
2022-11-13T20:53:44.884Z,86.34
2022-11-13T20:56:11.865Z,86.57
2022-11-13T20:58:38.433Z,86.48
2022-11-13T21:01:10.504Z,86.58
2022-11-13T21:03:41.850Z,86.81
2022-11-13T21:06:10.521Z,86.92
2022-11-13T21:08:37.369Z,86.86
2022-11-13T21:11:08.554Z,86.37
2022-11-13T21:13:35.180Z,86.45
2022-11-13T21:16:06.404Z,86.94
2022-11-13T21:18:32.967Z,86.64
2022-11-13T21:21:11.170Z,86.65
2022-11-13T21:23:38.108Z,86.31
2022-11-13T21:26:06.344Z,85.82
2022-11-13T21:28:34.118Z,86.11
2022-11-13T21:31:02.937Z,85.92
2022-11-13T21:33:31.476Z,85.66
2022-11-13T21:36:04.464Z,86.40
2022-11-13T21:38:32.211Z,86.17
2022-11-13T21:41:21.463Z,86.52
2022-11-13T21:43:58.461Z,86.23
2022-11-13T21:46:27.942Z,87.14
2022-11-13T21:49:00.655Z,87.22
2022-11-13T21:51:28.928Z,87.31
2022-11-13T21:53:58.253Z,87.08
2022-11-13T21:56:26.185Z,87.23
2022-11-13T21:58:53.100Z,87.48
2022-11-13T22:01:19.735Z,87.37
2022-11-13T22:03:46.273Z,87.33
2022-11-13T22:06:26.585Z,87.31
2022-11-13T22:08:56.228Z,87.33
2022-11-13T22:11:27.337Z,87.32
2022-11-13T22:13:54.898Z,87.88
2022-11-13T22:16:23.502Z,87.75
2022-11-13T22:18:55.347Z,87.44
2022-11-13T22:21:22.718Z,87.03
2022-11-13T22:23:50.137Z,87.23
2022-11-13T22:26:18.368Z,87.05
2022-11-13T22:28:46.241Z,86.93
2022-11-13T22:31:21.721Z,86.89
2022-11-13T22:33:52.480Z,87.13
2022-11-13T22:36:23.474Z,87.10
2022-11-13T22:38:50.127Z,87.03
2022-11-13T22:41:23.613Z,86.62
2022-11-13T22:43:53.281Z,86.43
2022-11-13T22:46:22.651Z,86.34
2022-11-13T22:48:50.138Z,86.52
2022-11-13T22:51:19.667Z,86.56
2022-11-13T22:53:55.189Z,86.28
2022-11-13T22:56:23.824Z,85.86
2022-11-13T22:58:50.767Z,85.93
2022-11-13T23:01:31.914Z,85.81
2022-11-13T23:04:01.411Z,86.10
2022-11-13T23:06:30.896Z,85.88
2022-11-13T23:08:57.895Z,86.07
2022-11-13T23:11:44.029Z,86.17
2022-11-13T23:14:12.833Z,86.13
2022-11-13T23:16:39.399Z,85.83
2022-11-13T23:19:06.102Z,85.98
2022-11-13T23:21:33.188Z,86.21
2022-11-13T23:24:00.224Z,86.14
2022-11-13T23:26:28.482Z,85.83
2022-11-13T23:28:55.609Z,86.13
2022-11-13T23:31:23.072Z,86.05
2022-11-13T23:33:49.704Z,86.27
2022-11-13T23:36:18.140Z,86.61
2022-11-13T23:38:45.278Z,86.57
2022-11-13T23:41:12.224Z,86.28
2022-11-13T23:46:25.331Z,86.43
2022-11-13T23:48:52.312Z,86.92
2022-11-13T23:51:18.803Z,86.49
2022-11-13T23:53:45.318Z,86.40
2022-11-13T23:56:11.899Z,86.88
2022-11-13T23:58:38.381Z,86.59
